Time;durP1;ratioP1;P1;durP2;ratioP2;P2;SDS_P1;SDS_P2;PMS_P1;PMS_P2;Temp;Humidity;BMP_temperature;BMP_pressure;BME280_temperature;BME280_humidity;BME280_pressure;Samples;Min_cycle;Max_cycle;Signal;HPM_P1;HPM_P2
2022/07/16 00:02:37;;;;;;;6.60;4.70;;;18.00;61.70;;;;;;5067846;28;20217;-72
2022/07/16 00:05:03;;;;;;;8.87;5.07;;;18.00;61.60;;;;;;5062670;28;20459;-73
2022/07/16 00:07:29;;;;;;;10.00;5.37;;;18.00;61.60;;;;;;5064831;28;20828;-72
2022/07/16 00:09:54;;;;;;;8.00;5.40;;;17.90;61.70;;;;;;5060839;28;20456;-73
2022/07/16 00:12:20;;;;;;;7.37;4.20;;;17.90;61.60;;;;;;5064450;28;20213;-74
2022/07/16 00:14:46;;;;;;;8.97;4.80;;;17.60;62.50;;;;;;5058752;28;20868;-72
2022/07/16 00:17:11;;;;;;;7.27;4.60;;;17.60;63.10;;;;;;5064973;28;20241;-71
2022/07/16 00:19:37;;;;;;;10.07;4.97;;;17.60;63.10;;;;;;5063227;28;20263;-71
2022/07/16 00:22:02;;;;;;;7.73;4.60;;;17.50;63.20;;;;;;5066624;28;20249;-73
2022/07/16 00:24:28;;;;;;;9.17;5.20;;;17.60;63.20;;;;;;5060590;28;20277;-73
2022/07/16 00:26:54;;;;;;;6.80;4.77;;;17.70;62.90;;;;;;5068994;28;20185;-73
2022/07/16 00:29:20;;;;;;;10.70;4.60;;;17.70;62.80;;;;;;5072790;28;20654;-73
2022/07/16 00:31:48;;;;;;;7.93;4.90;;;17.70;62.50;;;;;;5071174;28;20198;-71
2022/07/16 00:34:14;;;;;;;6.70;5.30;;;17.70;62.30;;;;;;5061913;28;20986;-73
2022/07/16 00:36:40;;;;;;;6.47;4.90;;;17.50;62.50;;;;;;5058851;28;20619;-73
2022/07/16 00:39:08;;;;;;;5.87;4.07;;;17.40;62.60;;;;;;5069031;28;20417;-73
2022/07/16 00:41:34;;;;;;;11.00;4.90;;;17.40;62.90;;;;;;5066089;28;20418;-72
2022/07/16 00:44:05;;;;;;;7.60;4.40;;;17.30;63.20;;;;;;5062054;28;20466;-72
2022/07/16 00:46:31;;;;;;;6.20;4.60;;;17.20;64.10;;;;;;5057803;28;20416;-73
2022/07/16 00:48:57;;;;;;;10.47;5.03;;;17.20;64.70;;;;;;5065136;28;20470;-75
2022/07/16 00:51:24;;;;;;;6.53;4.70;;;17.20;64.50;;;;;;5060898;28;20493;-72
2022/07/16 00:53:51;;;;;;;8.00;4.70;;;17.20;64.50;;;;;;5062063;28;20540;-75
2022/07/16 00:56:17;;;;;;;6.23;4.77;;;17.10;64.50;;;;;;5067267;28;20414;-75
2022/07/16 00:58:45;;;;;;;15.70;5.20;;;17.20;64.40;;;;;;5064844;28;20429;-73
2022/07/16 01:01:12;;;;;;;8.23;4.50;;;17.20;64.10;;;;;;5066886;28;20183;-72
2022/07/16 01:03:39;;;;;;;7.37;4.60;;;17.10;64.10;;;;;;5061779;28;20446;-74
2022/07/16 01:06:06;;;;;;;7.57;5.00;;;17.10;64.40;;;;;;5067606;28;20510;-72
2022/07/16 01:08:35;;;;;;;6.10;4.40;;;17.00;64.20;;;;;;5068070;28;20433;-72
2022/07/16 01:11:04;;;;;;;6.80;4.73;;;17.00;64.40;;;;;;5065716;28;20423;-74
2022/07/16 01:13:31;;;;;;;7.50;4.70;;;17.00;64.20;;;;;;5064504;28;20814;-72
2022/07/16 01:15:56;;;;;;;8.23;4.33;;;16.90;64.20;;;;;;5059810;28;20448;-75
2022/07/16 01:18:22;;;;;;;7.23;4.63;;;16.90;64.20;;;;;;5063847;28;20462;-73
2022/07/16 01:20:48;;;;;;;5.07;3.70;;;16.90;64.50;;;;;;5062270;28;20188;-72
2022/07/16 01:23:21;;;;;;;9.70;4.53;;;16.90;64.50;;;;;;5061664;28;20425;-72
2022/07/16 01:25:47;;;;;;;7.67;4.80;;;16.80;64.50;;;;;;5055580;28;20303;-74
2022/07/16 01:28:13;;;;;;;8.23;4.40;;;16.80;64.70;;;;;;5062606;28;20866;-73
2022/07/16 01:30:39;;;;;;;8.80;5.00;;;16.80;64.50;;;;;;5066247;28;20422;-73
2022/07/16 01:33:27;;;;;;;8.90;4.90;;;16.80;64.50;;;;;;5057745;28;20414;-73
2022/07/16 01:36:22;;;;;;;8.43;4.73;;;16.70;65.00;;;;;;5067241;28;20434;-73
2022/07/16 01:38:48;;;;;;;8.33;4.80;;;16.60;65.40;;;;;;5057977;28;20448;-73
2022/07/16 01:41:13;;;;;;;6.87;4.93;;;16.60;65.40;;;;;;5066913;28;20508;-74
2022/07/16 01:43:40;;;;;;;6.63;4.67;;;16.60;65.40;;;;;;5062804;28;20201;-75
2022/07/16 01:46:05;;;;;;;8.47;4.90;;;16.60;65.30;;;;;;5063349;28;20263;-74
2022/07/16 01:48:31;;;;;;;9.60;4.90;;;16.70;65.30;;;;;;5067129;28;20510;-76
2022/07/16 01:50:57;;;;;;;7.83;4.60;;;16.60;65.30;;;;;;5070986;28;20233;-73
2022/07/16 01:53:23;;;;;;;6.90;4.40;;;16.60;65.60;;;;;;5061966;28;20204;-74
2022/07/16 01:55:49;;;;;;;10.73;4.13;;;16.60;65.40;;;;;;5064204;28;20437;-73
2022/07/16 01:58:15;;;;;;;7.30;4.73;;;16.50;65.60;;;;;;5065649;28;20466;-75
2022/07/16 02:00:44;;;;;;;5.60;4.10;;;16.50;65.70;;;;;;5070202;28;20418;-73
2022/07/16 02:03:11;;;;;;;7.87;3.97;;;16.50;65.70;;;;;;5066159;28;20847;-73
2022/07/16 02:05:36;;;;;;;9.67;4.40;;;16.50;65.80;;;;;;5062965;28;20425;-72
2022/07/16 02:08:03;;;;;;;8.10;4.70;;;16.40;65.80;;;;;;5066910;28;20611;-74
2022/07/16 02:10:29;;;;;;;8.07;5.10;;;16.40;66.00;;;;;;5064687;28;20207;-74
2022/07/16 02:12:55;;;;;;;6.80;4.77;;;16.40;66.10;;;;;;5068704;28;20445;-71
2022/07/16 02:15:20;;;;;;;6.23;4.30;;;16.30;66.10;;;;;;5061541;28;20408;-75
2022/07/16 02:17:46;;;;;;;7.40;4.03;;;16.40;66.10;;;;;;5069742;28;20341;-73
2022/07/16 02:20:12;;;;;;;7.40;4.50;;;16.30;66.00;;;;;;5060932;28;20538;-74
2022/07/16 02:22:38;;;;;;;7.30;4.73;;;16.30;66.10;;;;;;5070875;28;20239;-74
2022/07/16 02:25:05;;;;;;;10.27;4.60;;;16.30;66.90;;;;;;5065633;28;20715;-74
2022/07/16 02:27:31;;;;;;;6.70;4.10;;;16.20;66.90;;;;;;5069313;28;20441;-75
2022/07/16 02:29:58;;;;;;;7.27;4.87;;;16.20;66.90;;;;;;5072370;28;20424;-73
2022/07/16 02:32:23;;;;;;;8.87;5.50;;;16.20;67.50;;;;;;5074790;28;20205;-74
2022/07/16 02:34:49;;;;;;;8.70;5.17;;;16.20;67.90;;;;;;5076495;28;20537;-74
2022/07/16 02:37:15;;;;;;;9.50;4.60;;;16.10;68.00;;;;;;5080259;28;20242;-74
2022/07/16 02:39:41;;;;;;;6.50;4.33;;;16.00;69.10;;;;;;5083373;28;20206;-72
2022/07/16 02:42:06;;;;;;;6.17;4.20;;;15.90;69.40;;;;;;5076666;28;20295;-74
2022/07/16 02:44:32;;;;;;;6.67;4.97;;;15.90;69.50;;;;;;5069253;28;20210;-75
2022/07/16 02:46:57;;;;;;;6.53;4.60;;;15.80;69.80;;;;;;5070590;28;20245;-75
2022/07/16 02:49:23;;;;;;;12.93;5.77;;;15.70;69.90;;;;;;5071013;28;20188;-74
2022/07/16 02:51:49;;;;;;;7.20;4.73;;;15.70;70.10;;;;;;5070485;28;20194;-76
2022/07/16 02:54:14;;;;;;;6.97;4.70;;;15.60;70.20;;;;;;5060760;28;20206;-75
2022/07/16 02:56:40;;;;;;;6.10;4.50;;;15.60;70.20;;;;;;5068375;28;20219;-73
2022/07/16 02:59:05;;;;;;;8.93;4.37;;;15.60;70.10;;;;;;5065998;28;20180;-73
2022/07/16 03:01:31;;;;;;;8.63;5.97;;;15.60;70.70;;;;;;5067591;28;20267;-73
2022/07/16 03:03:57;;;;;;;5.90;4.53;;;15.50;70.70;;;;;;5066437;28;20207;-73
2022/07/16 03:06:23;;;;;;;5.53;3.73;;;15.60;69.90;;;;;;5069093;28;20190;-73
2022/07/16 03:08:48;;;;;;;6.20;4.27;;;15.70;68.90;;;;;;5081384;28;20282;-73
2022/07/16 03:11:15;;;;;;;6.47;4.47;;;15.70;68.50;;;;;;5081235;28;20195;-73
2022/07/16 03:13:41;;;;;;;7.50;4.07;;;15.70;68.30;;;;;;5068521;28;20462;-73
2022/07/16 03:16:07;;;;;;;6.50;4.40;;;15.70;68.00;;;;;;5068818;28;20934;-72
2022/07/16 03:18:32;;;;;;;7.07;4.67;;;15.70;68.20;;;;;;5070338;28;20268;-71
2022/07/16 03:20:58;;;;;;;7.47;4.30;;;15.70;69.50;;;;;;5062399;28;20670;-72
2022/07/16 03:23:24;;;;;;;5.77;3.70;;;15.70;69.10;;;;;;5065227;28;20202;-78
2022/07/16 03:25:49;;;;;;;9.43;4.57;;;15.70;68.80;;;;;;5059630;28;20219;-72
2022/07/16 03:28:15;;;;;;;9.00;4.70;;;15.60;68.60;;;;;;5067526;28;20531;-71
2022/07/16 03:30:40;;;;;;;6.87;4.37;;;15.60;68.90;;;;;;5064558;28;20199;-74
2022/07/16 03:33:06;;;;;;;6.20;4.10;;;15.60;68.80;;;;;;5068571;28;20288;-72
2022/07/16 03:35:32;;;;;;;8.30;4.50;;;15.50;69.20;;;;;;5063757;28;20188;-75
2022/07/16 03:40:42;;;;;;;11.70;4.83;;;15.60;70.40;;;;;;5056247;28;20210;-73
2022/07/16 03:43:08;;;;;;;9.33;5.17;;;15.40;70.80;;;;;;5068289;28;20894;-72
2022/07/16 03:45:33;;;;;;;8.03;5.87;;;15.30;71.30;;;;;;5064055;28;20193;-74
2022/07/16 03:47:59;;;;;;;7.33;5.03;;;15.20;71.70;;;;;;5066901;28;20239;-73
2022/07/16 03:50:25;;;;;;;8.03;4.33;;;15.10;72.10;;;;;;5069991;28;20198;-75
2022/07/16 03:52:50;;;;;;;8.87;5.33;;;15.10;72.30;;;;;;5065544;28;20205;-73
2022/07/16 03:55:16;;;;;;;6.63;4.80;;;15.10;72.30;;;;;;5061320;28;20581;-74
2022/07/16 03:57:42;;;;;;;7.83;4.83;;;15.10;72.10;;;;;;5068475;28;20755;-72
2022/07/16 04:00:08;;;;;;;7.50;5.10;;;15.10;72.30;;;;;;5070386;28;20193;-72
2022/07/16 04:02:34;;;;;;;6.90;5.30;;;15.10;72.10;;;;;;5069248;28;20765;-73
2022/07/16 04:05:00;;;;;;;8.10;4.87;;;15.10;72.10;;;;;;5064474;28;20488;-73
2022/07/16 04:07:25;;;;;;;7.57;4.70;;;15.10;72.40;;;;;;5053892;28;20212;-73
2022/07/16 04:09:51;;;;;;;6.60;5.10;;;15.20;71.80;;;;;;5067222;28;20204;-75
2022/07/16 04:12:17;;;;;;;6.03;4.30;;;15.20;71.70;;;;;;5070612;28;20187;-73
2022/07/16 04:14:42;;;;;;;7.03;5.30;;;15.20;71.80;;;;;;5066662;28;20318;-73
2022/07/16 04:17:08;;;;;;;6.50;4.70;;;15.20;71.40;;;;;;5064205;28;20278;-73
2022/07/16 04:19:34;;;;;;;4.03;3.60;;;15.20;71.40;;;;;;5066313;28;20180;-75
2022/07/16 04:21:59;;;;;;;5.87;4.50;;;15.20;70.80;;;;;;5069092;28;20187;-73
2022/07/16 04:24:25;;;;;;;7.80;3.73;;;15.30;70.10;;;;;;5059578;28;20242;-75
2022/07/16 04:26:50;;;;;;;5.90;4.20;;;15.30;69.40;;;;;;5068382;28;20661;-73
2022/07/16 04:29:16;;;;;;;4.73;3.60;;;15.40;69.10;;;;;;5072454;28;20278;-73
2022/07/16 04:31:42;;;;;;;8.67;5.10;;;15.50;68.30;;;;;;5071962;28;20180;-74
2022/07/16 04:34:07;;;;;;;12.43;5.50;;;15.50;69.10;;;;;;5066163;28;20238;-74
2022/07/16 04:36:33;;;;;;;6.63;5.00;;;15.50;70.80;;;;;;5065069;28;20269;-75
2022/07/16 04:38:58;;;;;;;7.43;4.50;;;15.50;70.80;;;;;;5065771;28;20188;-73
2022/07/16 04:41:24;;;;;;;6.73;4.80;;;15.40;71.10;;;;;;5057250;28;20209;-75
2022/07/16 04:43:50;;;;;;;9.27;4.80;;;15.30;71.40;;;;;;5060319;28;20258;-73
2022/07/16 04:46:16;;;;;;;7.03;5.10;;;15.40;71.30;;;;;;5067739;28;20676;-73
2022/07/16 04:48:42;;;;;;;7.97;4.93;;;15.40;71.10;;;;;;5067743;28;20458;-73
2022/07/16 04:51:07;;;;;;;8.23;5.23;;;15.40;71.10;;;;;;5068101;28;20628;-74
2022/07/16 04:53:35;;;;;;;10.37;5.07;;;15.40;71.10;;;;;;5062718;28;20495;-75
2022/07/16 04:56:00;;;;;;;7.37;4.63;;;15.40;71.00;;;;;;5066368;28;20306;-74
2022/07/16 04:58:26;;;;;;;5.90;4.57;;;15.40;71.00;;;;;;5068182;28;20561;-74
2022/07/16 05:00:52;;;;;;;11.97;5.23;;;15.50;70.80;;;;;;5067946;28;20186;-73
2022/07/16 05:03:17;;;;;;;9.30;5.07;;;15.50;70.50;;;;;;5058279;28;20215;-76
2022/07/16 05:05:43;;;;;;;6.67;4.90;;;15.50;70.40;;;;;;5064575;28;20176;-75
2022/07/16 05:08:09;;;;;;;6.30;4.80;;;15.60;69.90;;;;;;5065549;28;20195;-73
2022/07/16 05:10:35;;;;;;;8.10;5.10;;;15.60;70.10;;;;;;5068256;28;20192;-75
2022/07/16 05:13:02;;;;;;;6.10;4.60;;;15.60;70.20;;;;;;5066358;28;20495;-74
2022/07/16 05:15:28;;;;;;;9.00;5.00;;;15.60;70.40;;;;;;5062566;28;20488;-73
2022/07/16 05:17:55;;;;;;;7.40;5.30;;;15.80;69.90;;;;;;5066164;28;20518;-75
2022/07/16 05:20:22;;;;;;;7.20;5.20;;;15.80;69.80;;;;;;5063005;28;20951;-75
2022/07/16 05:22:47;;;;;;;7.73;5.03;;;16.00;69.10;;;;;;5065970;28;20444;-73
2022/07/16 05:25:15;;;;;;;9.27;5.03;;;16.10;68.80;;;;;;5058662;28;20943;-76
2022/07/16 05:27:41;;;;;;;8.27;4.60;;;16.10;68.50;;;;;;5061356;28;20187;-75
2022/07/16 05:30:09;;;;;;;6.03;4.30;;;16.10;67.30;;;;;;5066966;28;20421;-75
2022/07/16 05:32:35;;;;;;;7.20;3.93;;;16.20;67.30;;;;;;5058555;28;20271;-73
2022/07/16 05:35:00;;;;;;;6.50;4.33;;;16.20;65.70;;;;;;5064422;28;20565;-73
2022/07/16 05:37:26;;;;;;;8.80;4.43;;;16.20;64.70;;;;;;5056521;28;20497;-75
2022/07/16 05:39:51;;;;;;;6.00;4.50;;;16.30;64.10;;;;;;5067507;28;20191;-75
2022/07/16 05:42:17;;;;;;;8.37;4.00;;;16.40;63.50;;;;;;5062245;28;20257;-74
2022/07/16 05:44:43;;;;;;;9.43;4.60;;;16.50;63.80;;;;;;5062989;28;20726;-74
2022/07/16 05:47:08;;;;;;;7.20;3.90;;;16.50;64.20;;;;;;5065217;28;20184;-74
2022/07/16 05:49:34;;;;;;;8.17;4.17;;;16.60;63.80;;;;;;5067900;28;20566;-74
2022/07/16 05:51:59;;;;;;;6.43;4.30;;;16.70;63.70;;;;;;5067013;28;20200;-74
2022/07/16 05:54:25;;;;;;;5.80;4.17;;;16.80;63.70;;;;;;5061018;28;20218;-75
2022/07/16 05:56:51;;;;;;;7.17;4.03;;;16.90;63.50;;;;;;5062944;28;20222;-76
2022/07/16 05:59:16;;;;;;;7.20;4.50;;;17.10;62.30;;;;;;5066532;28;20183;-74
2022/07/16 06:01:42;;;;;;;5.53;4.07;;;17.10;61.20;;;;;;5068843;28;20644;-74
2022/07/16 06:04:08;;;;;;;9.73;4.10;;;17.20;59.70;;;;;;5061796;28;20287;-74
2022/07/16 06:06:33;;;;;;;7.60;3.47;;;17.30;59.60;;;;;;5060530;28;20180;-75
2022/07/16 06:08:59;;;;;;;7.50;3.87;;;17.40;59.90;;;;;;5066123;28;20267;-74
2022/07/16 06:11:25;;;;;;;7.40;3.87;;;17.50;59.70;;;;;;5064081;28;20176;-74
2022/07/16 06:13:50;;;;;;;6.60;3.70;;;17.70;58.50;;;;;;5060813;28;20210;-73
2022/07/16 06:16:16;;;;;;;7.30;3.50;;;17.80;58.20;;;;;;5067822;28;20190;-75
2022/07/16 06:18:42;;;;;;;7.73;4.37;;;17.80;58.40;;;;;;5076554;28;20211;-73
2022/07/16 06:21:07;;;;;;;6.57;4.43;;;17.80;58.20;;;;;;5069332;28;20184;-75
2022/07/16 06:23:33;;;;;;;7.23;3.93;;;17.80;58.40;;;;;;5065990;28;20837;-75
2022/07/16 06:25:59;;;;;;;9.03;3.90;;;17.90;58.80;;;;;;5065241;28;20222;-74
2022/07/16 06:28:24;;;;;;;11.07;5.00;;;18.00;58.80;;;;;;5071682;28;20176;-75
2022/07/16 06:30:50;;;;;;;7.17;4.30;;;18.00;58.80;;;;;;5067039;28;20216;-75
2022/07/16 06:33:16;;;;;;;9.53;4.50;;;18.10;58.40;;;;;;5071266;28;20275;-75
2022/07/16 06:35:41;;;;;;;9.00;4.80;;;18.10;58.20;;;;;;5067638;28;20574;-77
2022/07/16 06:38:07;;;;;;;6.00;4.13;;;18.10;58.00;;;;;;5070543;28;20845;-73
2022/07/16 06:40:33;;;;;;;8.07;4.37;;;18.20;58.50;;;;;;5069923;28;20178;-75
2022/07/16 06:42:58;;;;;;;10.27;4.90;;;18.10;59.30;;;;;;5070762;28;20519;-73
2022/07/16 06:45:24;;;;;;;7.50;4.30;;;18.20;59.50;;;;;;5059599;28;20243;-74
2022/07/16 06:47:50;;;;;;;9.80;5.40;;;18.30;59.50;;;;;;5066738;28;20690;-74
2022/07/16 06:50:15;;;;;;;7.00;3.90;;;18.40;58.10;;;;;;5068914;28;20197;-74
2022/07/16 06:52:41;;;;;;;6.93;4.40;;;18.50;58.50;;;;;;5069823;28;20219;-75
2022/07/16 06:55:07;;;;;;;7.93;4.23;;;18.70;58.70;;;;;;5062522;28;20204;-75
2022/07/16 06:57:33;;;;;;;8.00;5.10;;;18.80;57.80;;;;;;5067455;28;20358;-75
2022/07/16 06:59:58;;;;;;;6.97;4.63;;;18.80;57.40;;;;;;5066503;28;20571;-73
2022/07/16 07:02:24;;;;;;;8.77;4.90;;;18.80;57.70;;;;;;5071605;28;20184;-74
2022/07/16 07:04:50;;;;;;;7.13;4.33;;;18.90;57.70;;;;;;5062467;28;20220;-76
2022/07/16 07:07:16;;;;;;;14.80;5.43;;;19.00;56.50;;;;;;5057324;28;20228;-73
2022/07/16 07:09:42;;;;;;;10.27;5.20;;;19.10;57.00;;;;;;5062572;28;20188;-74
2022/07/16 07:12:07;;;;;;;19.07;11.20;;;19.10;56.50;;;;;;5064693;28;20460;-75
2022/07/16 07:14:33;;;;;;;45.33;25.10;;;19.10;58.00;;;;;;5063545;28;20210;-74
2022/07/16 07:16:59;;;;;;;28.37;16.30;;;19.20;58.20;;;;;;5069812;28;20238;-75
2022/07/16 07:19:24;;;;;;;10.57;5.13;;;19.30;57.60;;;;;;5059723;28;20195;-75
2022/07/16 07:21:50;;;;;;;14.67;9.30;;;19.30;56.80;;;;;;5069009;28;20283;-78
2022/07/16 07:24:15;;;;;;;10.63;7.40;;;19.40;57.60;;;;;;5062517;28;20201;-75
2022/07/16 07:26:41;;;;;;;8.73;5.27;;;19.50;57.30;;;;;;5081620;28;20203;-73
2022/07/16 07:29:07;;;;;;;9.87;6.00;;;19.50;56.80;;;;;;5078984;28;20263;-72
2022/07/16 07:31:32;;;;;;;10.17;5.30;;;19.50;56.90;;;;;;5079405;28;20207;-74
2022/07/16 07:33:58;;;;;;;6.70;5.27;;;19.60;56.40;;;;;;5061741;28;20709;-77
2022/07/16 07:36:23;;;;;;;9.93;4.97;;;19.70;56.40;;;;;;5072014;28;20215;-78
2022/07/16 07:38:49;;;;;;;5.50;4.20;;;19.90;55.70;;;;;;5072099;28;20214;-76
2022/07/16 07:41:15;;;;;;;6.07;4.30;;;20.00;55.30;;;;;;5067390;28;20165;-76
2022/07/16 07:43:40;;;;;;;9.00;4.33;;;20.10;54.80;;;;;;5064183;28;20307;-74
2022/07/16 07:46:06;;;;;;;12.33;8.30;;;20.10;54.80;;;;;;5068695;28;20688;-74
2022/07/16 07:48:32;;;;;;;25.47;14.13;;;20.10;54.90;;;;;;5069007;28;20212;-74
2022/07/16 07:50:58;;;;;;;18.00;9.30;;;20.10;55.00;;;;;;5069809;28;20263;-75
2022/07/16 07:53:24;;;;;;;6.97;4.50;;;20.10;53.80;;;;;;5062708;28;20470;-74
2022/07/16 07:55:49;;;;;;;10.70;5.80;;;20.20;53.00;;;;;;5059964;28;20193;-76
2022/07/16 07:58:15;;;;;;;12.10;7.07;;;20.20;52.90;;;;;;5071371;28;20205;-75
2022/07/16 08:00:41;;;;;;;13.23;6.17;;;20.40;52.50;;;;;;5062284;28;20258;-73
2022/07/16 08:03:08;;;;;;;12.73;5.47;;;20.50;52.20;;;;;;5063676;28;20178;-76
2022/07/16 08:05:33;;;;;;;10.67;5.07;;;20.50;52.20;;;;;;5068316;28;20438;-75
2022/07/16 08:07:59;;;;;;;5.30;3.90;;;20.60;51.80;;;;;;5074654;28;20433;-75
2022/07/16 08:10:25;;;;;;;7.43;4.40;;;20.60;50.60;;;;;;5064955;28;20192;-75
2022/07/16 08:12:50;;;;;;;13.20;5.00;;;20.70;51.00;;;;;;5065366;28;20674;-75
2022/07/16 08:15:16;;;;;;;5.07;3.70;;;20.80;51.20;;;;;;5064220;28;20219;-75
2022/07/16 08:17:42;;;;;;;6.03;3.83;;;20.90;49.70;;;;;;5066054;28;20232;-74
2022/07/16 08:20:09;;;;;;;4.83;3.77;;;20.90;48.30;;;;;;5063665;28;20184;-74
2022/07/16 08:22:35;;;;;;;5.70;3.50;;;20.90;47.50;;;;;;5060867;28;20232;-74
2022/07/16 08:27:45;;;;;;;5.60;2.90;;;20.90;47.70;;;;;;5067557;28;20557;-75
2022/07/16 08:30:11;;;;;;;4.53;2.80;;;20.90;47.30;;;;;;5069470;28;20495;-75
2022/07/16 08:32:37;;;;;;;4.83;2.53;;;20.90;47.30;;;;;;5063125;28;20186;-74
2022/07/16 08:35:03;;;;;;;7.20;3.47;;;21.00;47.10;;;;;;5062019;28;20210;-75
2022/07/16 08:37:38;;;;;;;7.40;3.30;;;20.90;47.70;;;;;;5065845;28;20212;-75
2022/07/16 08:40:06;;;;;;;5.93;3.43;;;21.00;47.10;;;;;;5060435;28;20433;-75
2022/07/16 08:42:33;;;;;;;4.60;3.03;;;20.80;46.90;;;;;;5063798;28;20443;-75
2022/07/16 08:45:00;;;;;;;4.17;3.00;;;20.90;47.10;;;;;;5059802;28;20504;-74
2022/07/16 08:47:29;;;;;;;6.87;3.20;;;21.00;46.90;;;;;;5066556;28;20933;-76
2022/07/16 08:49:55;;;;;;;8.93;3.33;;;21.10;46.50;;;;;;5066662;28;20509;-75
2022/07/16 08:52:26;;;;;;;3.73;2.80;;;21.00;46.50;;;;;;5064315;28;20486;-73
2022/07/16 08:54:53;;;;;;;4.63;3.00;;;21.20;45.40;;;;;;5058530;28;20559;-75
2022/07/16 08:57:19;;;;;;;7.83;4.13;;;21.30;45.40;;;;;;5062824;28;20602;-74
2022/07/16 08:59:45;;;;;;;8.63;5.93;;;21.30;45.40;;;;;;5066828;28;20793;-73
2022/07/16 09:02:16;;;;;;;8.37;3.17;;;21.30;45.30;;;;;;5066404;28;20490;-75
2022/07/16 09:04:42;;;;;;;4.93;3.00;;;21.30;45.30;;;;;;5064662;28;20305;-75
2022/07/16 09:07:16;;;;;;;5.83;2.90;;;21.10;45.70;;;;;;5065488;28;20935;-75
2022/07/16 09:09:44;;;;;;;4.00;2.33;;;21.10;45.10;;;;;;5063970;28;20786;-75
2022/07/16 09:12:11;;;;;;;7.03;2.57;;;21.10;45.10;;;;;;5062683;28;20441;-74
2022/07/16 09:14:36;;;;;;;6.53;3.27;;;21.10;44.70;;;;;;5060903;28;20521;-73
2022/07/16 09:17:02;;;;;;;3.43;2.60;;;21.10;44.90;;;;;;5064700;28;20514;-74
2022/07/16 09:19:29;;;;;;;5.57;2.83;;;21.10;45.10;;;;;;5064883;28;20190;-74
2022/07/16 09:22:06;;;;;;;6.30;2.83;;;21.30;44.20;;;;;;5066954;28;20201;-75
2022/07/16 09:24:38;;;;;;;5.60;2.70;;;21.10;44.30;;;;;;5060701;28;20459;-73
2022/07/16 09:27:05;;;;;;;3.40;2.40;;;21.10;44.20;;;;;;5066400;28;20436;-75
2022/07/16 09:29:58;;;;;;;3.67;2.50;;;21.20;44.20;;;;;;5065976;28;20424;-74
2022/07/16 09:32:39;;;;;;;2.67;2.20;;;21.30;43.80;;;;;;5065720;28;20505;-76
2022/07/16 09:35:05;;;;;;;5.30;2.87;;;21.50;42.80;;;;;;5063090;28;20461;-76
2022/07/16 09:37:51;;;;;;;4.97;2.60;;;21.60;43.20;;;;;;5067794;28;20472;-74
2022/07/16 09:40:37;;;;;;;5.17;2.83;;;21.70;43.20;;;;;;5062872;28;20421;-75
2022/07/16 09:43:23;;;;;;;3.80;2.63;;;21.80;43.50;;;;;;5065543;28;20449;-74
2022/07/16 09:45:57;;;;;;;2.80;2.30;;;22.00;43.10;;;;;;5067722;28;20804;-73
2022/07/16 09:48:35;;;;;;;4.93;2.20;;;22.20;43.20;;;;;;5055298;28;20420;-76
2022/07/16 09:51:17;;;;;;;5.17;2.70;;;22.20;43.70;;;;;;5068374;28;21024;-74
2022/07/16 09:53:43;;;;;;;3.60;2.83;;;22.30;42.60;;;;;;5065174;28;21141;-75
2022/07/16 09:56:12;;;;;;;6.30;2.87;;;22.20;43.00;;;;;;5061515;28;20985;-74
2022/07/16 09:58:38;;;;;;;7.10;2.70;;;22.00;43.50;;;;;;5063061;28;20468;-75
2022/07/16 10:01:05;;;;;;;7.57;3.60;;;22.00;43.80;;;;;;5069036;28;20492;-75
2022/07/16 10:03:31;;;;;;;5.40;3.40;;;22.20;43.40;;;;;;5064975;28;20206;-74
2022/07/16 10:05:57;;;;;;;7.13;3.50;;;22.20;43.40;;;;;;5071699;28;20433;-74
2022/07/16 10:08:23;;;;;;;5.30;3.40;;;22.40;43.40;;;;;;5071704;28;20181;-73
2022/07/16 10:10:49;;;;;;;4.47;2.70;;;22.50;43.00;;;;;;5069010;28;20457;-73
2022/07/16 10:13:17;;;;;;;3.60;2.80;;;22.70;42.20;;;;;;5070745;28;20425;-74
2022/07/16 10:15:43;;;;;;;6.13;3.13;;;22.90;42.00;;;;;;5066425;28;20439;-73
2022/07/16 10:18:35;;;;;;;4.40;3.20;;;22.90;41.90;;;;;;5070874;28;20814;-73
2022/07/16 10:21:13;;;;;;;5.67;2.67;;;23.30;41.40;;;;;;5068046;28;20420;-74
2022/07/16 10:23:42;;;;;;;8.03;2.60;;;23.40;40.70;;;;;;5063562;28;20862;-74
2022/07/16 10:26:12;;;;;;;5.73;2.60;;;23.30;40.80;;;;;;5067703;28;20923;-75
2022/07/16 10:28:44;;;;;;;3.57;2.93;;;23.30;40.70;;;;;;5065071;28;20432;-73
2022/07/16 10:31:39;;;;;;;6.73;2.97;;;22.90;41.20;;;;;;5063717;28;20424;-74
2022/07/16 10:34:13;;;;;;;5.87;3.50;;;23.10;40.70;;;;;;5057960;28;20550;-75
2022/07/16 10:36:53;;;;;;;4.20;2.50;;;23.20;40.40;;;;;;5071782;28;20419;-76
2022/07/16 10:39:20;;;;;;;4.80;2.60;;;23.40;39.90;;;;;;5065804;28;20446;-74
2022/07/16 10:42:00;;;;;;;3.70;2.63;;;23.60;39.60;;;;;;5068888;28;20463;-75
2022/07/16 10:44:47;;;;;;;2.77;2.40;;;23.50;39.60;;;;;;5064058;28;20581;-76
2022/07/16 10:47:14;;;;;;;4.53;3.27;;;23.80;39.50;;;;;;5062985;28;20437;-75
2022/07/16 10:49:40;;;;;;;3.37;2.50;;;24.20;38.60;;;;;;5065453;28;20424;-75
2022/07/16 10:52:14;;;;;;;3.13;2.63;;;24.70;37.80;;;;;;5064726;28;20437;-76
2022/07/16 10:54:41;;;;;;;4.33;2.90;;;24.60;37.80;;;;;;5062661;28;20466;-72
2022/07/16 10:57:11;;;;;;;8.07;3.20;;;25.00;36.70;;;;;;5069350;28;20471;-75
2022/07/16 10:59:48;;;;;;;4.83;2.67;;;24.50;37.20;;;;;;5071025;28;20415;-75
2022/07/16 11:02:16;;;;;;;3.37;2.60;;;24.40;37.40;;;;;;5067324;28;20510;-74
2022/07/16 11:04:47;;;;;;;4.20;3.07;;;24.40;37.40;;;;;;5064864;28;20929;-73
2022/07/16 11:07:21;;;;;;;4.47;2.80;;;24.20;37.50;;;;;;5069137;28;20430;-75
2022/07/16 11:09:49;;;;;;;4.23;2.83;;;24.10;37.90;;;;;;5066126;28;20506;-75
2022/07/16 11:12:20;;;;;;;5.30;3.00;;;23.80;38.70;;;;;;5068656;28;20417;-73
2022/07/16 11:14:49;;;;;;;5.33;2.77;;;24.00;38.00;;;;;;5064325;28;20479;-74
2022/07/16 11:17:17;;;;;;;6.60;3.10;;;24.50;37.10;;;;;;5070061;28;20476;-74
2022/07/16 11:19:50;;;;;;;4.27;2.27;;;24.50;36.60;;;;;;5068582;28;20437;-75
2022/07/16 11:22:18;;;;;;;6.73;2.73;;;24.10;37.40;;;;;;5064304;28;20484;-73
2022/07/16 11:24:45;;;;;;;4.37;2.80;;;24.00;37.90;;;;;;5064956;28;20936;-76
2022/07/16 11:27:11;;;;;;;4.97;2.50;;;24.40;37.60;;;;;;5069186;28;20428;-76
2022/07/16 11:29:37;;;;;;;3.87;2.67;;;24.40;36.70;;;;;;5064030;28;20432;-76
2022/07/16 11:32:03;;;;;;;7.73;3.00;;;24.80;36.60;;;;;;5066872;28;20427;-76
2022/07/16 11:34:36;;;;;;;3.40;2.70;;;24.40;36.30;;;;;;5068253;28;20299;-75
2022/07/16 11:37:02;;;;;;;4.13;2.53;;;24.30;37.00;;;;;;5069134;28;20214;-76
2022/07/16 11:39:29;;;;;;;4.80;2.90;;;24.50;36.40;;;;;;5071939;28;20426;-73
2022/07/16 11:41:57;;;;;;;6.93;2.90;;;24.60;35.50;;;;;;5076375;28;20423;-73
2022/07/16 11:44:29;;;;;;;4.30;2.30;;;24.60;35.50;;;;;;5076852;28;20768;-74
2022/07/16 11:47:00;;;;;;;3.43;2.67;;;24.80;34.30;;;;;;5078863;28;20802;-73
2022/07/16 11:49:34;;;;;;;7.07;2.17;;;24.40;34.50;;;;;;5074340;28;20445;-76
2022/07/16 11:52:03;;;;;;;5.07;2.60;;;24.60;34.80;;;;;;5066112;28;20432;-75
2022/07/16 11:54:29;;;;;;;7.07;2.30;;;24.50;34.50;;;;;;5066469;28;20465;-75
2022/07/16 11:56:57;;;;;;;3.70;2.17;;;24.40;34.90;;;;;;5070829;28;20436;-76
2022/07/16 11:59:28;;;;;;;3.17;2.13;;;24.70;34.90;;;;;;5069933;28;20419;-76
2022/07/16 12:01:58;;;;;;;3.20;2.53;;;25.30;33.30;;;;;;5066124;28;20571;-75
2022/07/16 12:04:52;;;;;;;4.20;2.40;;;25.30;33.50;;;;;;5060192;28;20452;-74
2022/07/16 12:07:37;;;;;;;4.33;2.40;;;25.10;34.40;;;;;;5061633;28;20589;-75
2022/07/16 12:10:06;;;;;;;3.57;2.20;;;25.30;34.80;;;;;;5069073;28;20434;-75
2022/07/16 12:12:34;;;;;;;5.13;2.50;;;25.40;33.90;;;;;;5067299;28;20481;-75
2022/07/16 12:15:01;;;;;;;4.97;2.87;;;25.00;34.70;;;;;;5061534;28;20544;-75
2022/07/16 12:17:33;;;;;;;2.63;2.00;;;25.00;35.20;;;;;;5064334;28;20979;-75
2022/07/16 12:20:06;;;;;;;5.20;2.47;;;25.00;35.20;;;;;;5066659;28;20501;-75
2022/07/16 12:22:50;;;;;;;5.03;2.43;;;24.60;36.00;;;;;;5069668;28;22003;-75
2022/07/16 12:25:27;;;;;;;4.60;1.90;;;25.20;35.20;;;;;;5062108;28;20480;-74
2022/07/16 12:28:21;;;;;;;2.90;2.00;;;25.70;34.70;;;;;;5060429;28;20945;-75
2022/07/16 12:30:51;;;;;;;2.97;2.33;;;25.90;34.40;;;;;;5066583;28;20429;-77
2022/07/16 12:33:21;;;;;;;5.40;2.40;;;25.40;35.20;;;;;;5067797;28;20421;-75
2022/07/16 12:35:57;;;;;;;2.67;2.37;;;25.50;35.50;;;;;;5062674;28;20867;-75
2022/07/16 12:38:45;;;;;;;4.07;2.53;;;25.90;35.60;;;;;;5063287;28;20471;-75
2022/07/16 12:41:15;;;;;;;4.00;2.50;;;26.20;34.70;;;;;;5065669;28;20411;-76
2022/07/16 12:43:44;;;;;;;4.77;2.23;;;26.80;33.30;;;;;;5068205;28;20448;-75
2022/07/16 12:46:11;;;;;;;4.03;2.40;;;26.20;33.90;;;;;;5064303;28;20782;-75
2022/07/16 12:48:48;;;;;;;5.40;2.90;;;26.30;34.50;;;;;;5068727;28;20434;-76
2022/07/16 12:51:18;;;;;;;3.77;2.23;;;26.80;33.60;;;;;;5070602;28;20853;-74
2022/07/16 12:53:43;;;;;;;3.67;2.60;;;26.80;33.50;;;;;;5070284;28;20450;-73
2022/07/16 12:58:54;;;;;;;2.80;2.60;;;26.90;33.70;;;;;;5073271;28;20594;-74